Harbor Emperor — WCY6430 — position and weather

sailwx.info

Track history (hours):
 
Tides and Currents Weather Stations Pressure Air Temp Water Temp Dewpoint Dewpoint Depression Visibility Wind Speed Wind Dir Waves Ship Positions

Harbor Emperor

Owner: BLUE & GOLD FLEET, SAN FRANCISCO, CA. More information available from US FCC via Universal Licensing System and Coast Guard Vessel Documentation Center.

Last reported at 2016-Jul-28 19:33 UTC. Time now 2016-Jul-28 20:24 UTC.
Position N 37°49' W 122°28'.

Length 31 m.

Type: Passenger vessel. MMSI: 366985270.

Date/timePositionNaut miles runAvg speedWind from/ knotsBaromVisibWave heightAir tempDewpointWater temp
2016-Jul-28 19:33N 37°49' W 122°28'2 2.4
2016-Jul-28 18:33N 37°50' W 122°25'1 0.1
2016-Jul-28 02:34N 37°49' W 122°26'2 1.6
2016-Jul-28 01:34N 37°49' W 122°24'0 0.3
2016-Jul-28 00:34N 37°49' W 122°25'1 1.3
2016-Jul-27 23:34N 37°50' W 122°26'1 1.3
2016-Jul-27 22:33N 37°49' W 122°25'0 0.1
2016-Jul-27 21:33N 37°49' W 122°25'0 0.1
2016-Jul-27 20:33N 37°49' W 122°25'2 2.3
2016-Jul-27 19:33N 37°49' W 122°28'2 2.0
2016-Jul-27 18:34N 37°49' W 122°25'1 0.6
2016-Jul-27 17:33N 37°49' W 122°25'0 0.0
2016-Jul-27 16:31N 37°49' W 122°25'0 0.0
2016-Jul-27 15:33N 37°49' W 122°25'0 0.0
2016-Jul-27 14:31N 37°49' W 122°25'0 0.0
2016-Jul-27 13:33N 37°49' W 122°25'0 0.0
2016-Jul-27 12:34N 37°49' W 122°25'0 0.0
2016-Jul-27 11:31N 37°49' W 122°25'0 0.0
2016-Jul-27 10:33N 37°49' W 122°25'0 0.0
2016-Jul-27 09:33N 37°49' W 122°25'0 0.0
2016-Jul-27 08:33N 37°49' W 122°25'0 0.0
2016-Jul-27 07:30N 37°49' W 122°25'0 0.0
2016-Jul-27 06:33N 37°49' W 122°25'0 0.0
2016-Jul-27 05:30N 37°49' W 122°25'0 0.0
2016-Jul-27 04:33N 37°49' W 122°25'0 0.0
2016-Jul-27 03:33N 37°49' W 122°25'2 1.6
2016-Jul-27 02:33N 37°49' W 122°26'2 1.7
2016-Jul-27 01:33N 37°49' W 122°24'0 0.3
2016-Jul-27 00:33N 37°49' W 122°25'1 1.1
2016-Jul-26 23:34N 37°49' W 122°25'1 1.1
2016-Jul-26 22:33N 37°49' W 122°25'0 0.0
2016-Jul-26 21:34N 37°49' W 122°25'0 0.0
2016-Jul-26 20:33N 37°49' W 122°25'3 2.5
2016-Jul-26 19:33N 37°49' W 122°28'2 2.4
2016-Jul-26 18:33N 37°49' W 122°25'1 0.7
2016-Jul-26 17:33N 37°49' W 122°25'0 0.0
2016-Jul-26 16:29N 37°49' W 122°25'0 0.0
2016-Jul-26 15:32N 37°49' W 122°25'0 0.0
2016-Jul-26 14:32N 37°49' W 122°25'0 0.0
2016-Jul-26 13:32N 37°49' W 122°25'0 0.0
2016-Jul-26 12:32N 37°49' W 122°25'0 0.0
2016-Jul-26 11:32N 37°49' W 122°25'0 0.0
2016-Jul-26 10:29N 37°49' W 122°25'0 0.0
2016-Jul-26 09:32N 37°49' W 122°25'0 0.0
2016-Jul-26 08:29N 37°49' W 122°25'0 0.0
2016-Jul-26 07:32N 37°49' W 122°25'0 0.0
2016-Jul-26 06:29N 37°49' W 122°25'0 0.0
2016-Jul-26 05:32N 37°49' W 122°25'0 0.0
2016-Jul-26 04:32N 37°49' W 122°25'0 0.0
2016-Jul-26 03:32N 37°49' W 122°25'2 1.9
2016-Jul-26 02:33N 37°49' W 122°27'2 1.8
2016-Jul-26 01:34N 37°49' W 122°25'1 0.7
2016-Jul-26 00:33N 37°49' W 122°25'1 1.0
2016-Jul-25 23:34N 37°49' W 122°25'1 1.0
2016-Jul-25 22:33N 37°49' W 122°25'0 0.0
2016-Jul-25 21:33N 37°49' W 122°25'0 0.0
2016-Jul-25 20:33N 37°49' W 122°25'2 2.2
2016-Jul-25 19:33N 37°49' W 122°27'2 2.1
2016-Jul-25 18:33N 37°49' W 122°25'1 0.6
2016-Jul-25 17:33N 37°49' W 122°25'2 0.1
2016-Jul-25 02:34N 37°50' W 122°26'2 1.5
2016-Jul-25 01:34N 37°49' W 122°24'0 0.2
2016-Jul-25 00:33N 37°49' W 122°25'1 1.2
2016-Jul-24 23:34N 37°50' W 122°25'1 1.2
2016-Jul-24 22:34N 37°49' W 122°25'0 0.1
2016-Jul-24 21:34N 37°49' W 122°25'0 0.1
2016-Jul-24 20:33N 37°49' W 122°25'2 2.3
2016-Jul-24 19:33N 37°49' W 122°27'2 2.4
2016-Jul-24 18:33N 37°49' W 122°24'0 0.2
2016-Jul-24 17:33N 37°49' W 122°25'2 0.1
2016-Jul-24 02:34N 37°50' W 122°26'2 1.5
2016-Jul-24 01:33N 37°49' W 122°25'0 0.2
2016-Jul-24 00:33N 37°49' W 122°25'1 1.3
2016-Jul-23 23:34N 37°50' W 122°25'1 1.3
2016-Jul-23 22:33N 37°49' W 122°25'0 0.0
2016-Jul-23 21:34N 37°49' W 122°25'0 0.0
2016-Jul-23 20:34N 37°49' W 122°25'2 2.0
2016-Jul-23 19:34N 37°49' W 122°27'2 2.0
2016-Jul-23 18:34N 37°49' W 122°25'1 0.5
2016-Jul-23 17:33N 37°49' W 122°25'0 0.0
2016-Jul-23 03:08N 37°49' W 122°25'3 5.4
2016-Jul-23 02:33N 37°49' W 122°28'3 2.9
2016-Jul-23 01:33N 37°50' W 122°25'1 1.0
2016-Jul-23 00:33N 37°49' W 122°25'1 1.3
2016-Jul-22 23:33N 37°50' W 122°25'1 1.3
2016-Jul-22 22:33N 37°49' W 122°25'0 0.1
2016-Jul-22 21:34N 37°49' W 122°25'0 0.1
2016-Jul-22 20:33N 37°49' W 122°25'2 1.7
2016-Jul-22 19:33N 37°49' W 122°27'2 1.9
2016-Jul-22 18:34N 37°49' W 122°25'1 0.8
2016-Jul-22 17:34N 37°49' W 122°25'0 0.2
2016-Jul-22 16:33N 37°49' W 122°24'1 0.0
2016-Jul-21 03:27N 37°48' W 122°24'3 3.1
2016-Jul-21 02:33N 37°50' W 122°27'1 1.5
2016-Jul-21 01:34N 37°49' W 122°25'1 0.8
2016-Jul-21 00:33N 37°49' W 122°25'1 1.2
2016-Jul-20 23:34N 37°50' W 122°26'1 1.2
2016-Jul-20 22:33N 37°49' W 122°25'0 0.0
2016-Jul-20 21:33N 37°49' W 122°25'0 0.0
2016-Jul-20 20:33N 37°49' W 122°25'2 2.1
2016-Jul-20 19:34N 37°49' W 122°27'2 2.0
2016-Jul-20 18:33N 37°49' W 122°25'1 0.6
2016-Jul-20 17:33N 37°49' W 122°25'0 0.0
2016-Jul-20 16:27N 37°49' W 122°25'2 0.2
2016-Jul-20 02:33N 37°50' W 122°27'2 1.8
2016-Jul-20 01:33N 37°49' W 122°25'1 0.6
2016-Jul-20 00:33N 37°49' W 122°25'1 1.3
2016-Jul-19 23:33N 37°50' W 122°26'1 1.3
2016-Jul-19 22:33N 37°49' W 122°25'0 0.0
2016-Jul-19 21:32N 37°49' W 122°25'0 0.0
2016-Jul-19 20:33N 37°49' W 122°25'2 2.1
2016-Jul-19 19:33N 37°49' W 122°27'2 2.2
2016-Jul-19 18:33N 37°49' W 122°24'0 0.5
2016-Jul-19 17:33N 37°49' W 122°25'2 0.1
2016-Jul-19 02:33N 37°50' W 122°27'2 1.8
2016-Jul-19 01:33N 37°49' W 122°24'0 0.4
2016-Jul-19 00:33N 37°49' W 122°25'1 1.4
2016-Jul-18 23:33N 37°50' W 122°25'1 1.4
2016-Jul-18 22:33N 37°49' W 122°25'0 0.0
2016-Jul-18 21:33N 37°49' W 122°25'0 0.0
2016-Jul-18 20:33N 37°49' W 122°25'3 2.6
2016-Jul-18 19:34N 37°49' W 122°28'  
Track history (hours):
 
Tides and Currents Weather Stations Pressure Air Temp Water Temp Dewpoint Dewpoint Depression Visibility Wind Speed Wind Dir Waves Ship Positions

Harbor Emperor

Owner: BLUE & GOLD FLEET, SAN FRANCISCO, CA. More information available from US FCC via Universal Licensing System and Coast Guard Vessel Documentation Center.

Last reported at 2016-Jul-28 19:33 UTC. Time now 2016-Jul-28 20:24 UTC.
Position N 37°49' W 122°28'.

Length 31 m.

Type: Passenger vessel. MMSI: 366985270.

Date/timePositionNaut miles runAvg speedWind from/ knotsBaromVisibWave heightAir tempDewpointWater temp
2016-Jul-28 19:33N 37°49' W 122°28'2 2.4
2016-Jul-28 18:33N 37°50' W 122°25'1 0.1
2016-Jul-28 02:34N 37°49' W 122°26'2 1.6
2016-Jul-28 01:34N 37°49' W 122°24'0 0.3
2016-Jul-28 00:34N 37°49' W 122°25'1 1.3
2016-Jul-27 23:34N 37°50' W 122°26'1 1.3
2016-Jul-27 22:33N 37°49' W 122°25'0 0.1
2016-Jul-27 21:33N 37°49' W 122°25'0 0.1
2016-Jul-27 20:33N 37°49' W 122°25'2 2.3
2016-Jul-27 19:33N 37°49' W 122°28'2 2.0
2016-Jul-27 18:34N 37°49' W 122°25'1 0.6
2016-Jul-27 17:33N 37°49' W 122°25'0 0.0
2016-Jul-27 16:31N 37°49' W 122°25'0 0.0
2016-Jul-27 15:33N 37°49' W 122°25'0 0.0
2016-Jul-27 14:31N 37°49' W 122°25'0 0.0
2016-Jul-27 13:33N 37°49' W 122°25'0 0.0
2016-Jul-27 12:34N 37°49' W 122°25'0 0.0
2016-Jul-27 11:31N 37°49' W 122°25'0 0.0
2016-Jul-27 10:33N 37°49' W 122°25'0 0.0
2016-Jul-27 09:33N 37°49' W 122°25'0 0.0
2016-Jul-27 08:33N 37°49' W 122°25'0 0.0
2016-Jul-27 07:30N 37°49' W 122°25'0 0.0
2016-Jul-27 06:33N 37°49' W 122°25'0 0.0
2016-Jul-27 05:30N 37°49' W 122°25'0 0.0
2016-Jul-27 04:33N 37°49' W 122°25'0 0.0
2016-Jul-27 03:33N 37°49' W 122°25'2 1.6
2016-Jul-27 02:33N 37°49' W 122°26'2 1.7
2016-Jul-27 01:33N 37°49' W 122°24'0 0.3
2016-Jul-27 00:33N 37°49' W 122°25'1 1.1
2016-Jul-26 23:34N 37°49' W 122°25'1 1.1
2016-Jul-26 22:33N 37°49' W 122°25'0 0.0
2016-Jul-26 21:34N 37°49' W 122°25'0 0.0
2016-Jul-26 20:33N 37°49' W 122°25'3 2.5
2016-Jul-26 19:33N 37°49' W 122°28'2 2.4
2016-Jul-26 18:33N 37°49' W 122°25'1 0.7
2016-Jul-26 17:33N 37°49' W 122°25'0 0.0
2016-Jul-26 16:29N 37°49' W 122°25'0 0.0
2016-Jul-26 15:32N 37°49' W 122°25'0 0.0
2016-Jul-26 14:32N 37°49' W 122°25'0 0.0
2016-Jul-26 13:32N 37°49' W 122°25'0 0.0
2016-Jul-26 12:32N 37°49' W 122°25'0 0.0
2016-Jul-26 11:32N 37°49' W 122°25'0 0.0
2016-Jul-26 10:29N 37°49' W 122°25'0 0.0
2016-Jul-26 09:32N 37°49' W 122°25'0 0.0
2016-Jul-26 08:29N 37°49' W 122°25'0 0.0
2016-Jul-26 07:32N 37°49' W 122°25'0 0.0
2016-Jul-26 06:29N 37°49' W 122°25'0 0.0
2016-Jul-26 05:32N 37°49' W 122°25'0 0.0
2016-Jul-26 04:32N 37°49' W 122°25'0 0.0
2016-Jul-26 03:32N 37°49' W 122°25'2 1.9
2016-Jul-26 02:33N 37°49' W 122°27'2 1.8
2016-Jul-26 01:34N 37°49' W 122°25'1 0.7
2016-Jul-26 00:33N 37°49' W 122°25'1 1.0
2016-Jul-25 23:34N 37°49' W 122°25'1 1.0
2016-Jul-25 22:33N 37°49' W 122°25'0 0.0
2016-Jul-25 21:33N 37°49' W 122°25'0 0.0
2016-Jul-25 20:33N 37°49' W 122°25'2 2.2
2016-Jul-25 19:33N 37°49' W 122°27'2 2.1
2016-Jul-25 18:33N 37°49' W 122°25'1 0.6
2016-Jul-25 17:33N 37°49' W 122°25'2 0.1
2016-Jul-25 02:34N 37°50' W 122°26'2 1.5
2016-Jul-25 01:34N 37°49' W 122°24'0 0.2
2016-Jul-25 00:33N 37°49' W 122°25'1 1.2
2016-Jul-24 23:34N 37°50' W 122°25'1 1.2
2016-Jul-24 22:34N 37°49' W 122°25'0 0.1
2016-Jul-24 21:34N 37°49' W 122°25'0 0.1
2016-Jul-24 20:33N 37°49' W 122°25'2 2.3
2016-Jul-24 19:33N 37°49' W 122°27'2 2.4
2016-Jul-24 18:33N 37°49' W 122°24'0 0.2
2016-Jul-24 17:33N 37°49' W 122°25'2 0.1
2016-Jul-24 02:34N 37°50' W 122°26'2 1.5
2016-Jul-24 01:33N 37°49' W 122°25'0 0.2
2016-Jul-24 00:33N 37°49' W 122°25'1 1.3
2016-Jul-23 23:34N 37°50' W 122°25'1 1.3
2016-Jul-23 22:33N 37°49' W 122°25'0 0.0
2016-Jul-23 21:34N 37°49' W 122°25'0 0.0
2016-Jul-23 20:34N 37°49' W 122°25'2 2.0
2016-Jul-23 19:34N 37°49' W 122°27'2 2.0
2016-Jul-23 18:34N 37°49' W 122°25'1 0.5
2016-Jul-23 17:33N 37°49' W 122°25'0 0.0
2016-Jul-23 03:08N 37°49' W 122°25'3 5.4
2016-Jul-23 02:33N 37°49' W 122°28'3 2.9
2016-Jul-23 01:33N 37°50' W 122°25'1 1.0
2016-Jul-23 00:33N 37°49' W 122°25'1 1.3
2016-Jul-22 23:33N 37°50' W 122°25'1 1.3
2016-Jul-22 22:33N 37°49' W 122°25'0 0.1
2016-Jul-22 21:34N 37°49' W 122°25'0 0.1
2016-Jul-22 20:33N 37°49' W 122°25'2 1.7
2016-Jul-22 19:33N 37°49' W 122°27'2 1.9
2016-Jul-22 18:34N 37°49' W 122°25'1 0.8
2016-Jul-22 17:34N 37°49' W 122°25'0 0.2
2016-Jul-22 16:33N 37°49' W 122°24'1 0.0
2016-Jul-21 03:27N 37°48' W 122°24'3 3.1
2016-Jul-21 02:33N 37°50' W 122°27'1 1.5
2016-Jul-21 01:34N 37°49' W 122°25'1 0.8
2016-Jul-21 00:33N 37°49' W 122°25'1 1.2
2016-Jul-20 23:34N 37°50' W 122°26'1 1.2
2016-Jul-20 22:33N 37°49' W 122°25'0 0.0
2016-Jul-20 21:33N 37°49' W 122°25'0 0.0
2016-Jul-20 20:33N 37°49' W 122°25'2 2.1
2016-Jul-20 19:34N 37°49' W 122°27'2 2.0
2016-Jul-20 18:33N 37°49' W 122°25'1 0.6
2016-Jul-20 17:33N 37°49' W 122°25'0 0.0
2016-Jul-20 16:27N 37°49' W 122°25'2 0.2
2016-Jul-20 02:33N 37°50' W 122°27'2 1.8
2016-Jul-20 01:33N 37°49' W 122°25'1 0.6
2016-Jul-20 00:33N 37°49' W 122°25'1 1.3
2016-Jul-19 23:33N 37°50' W 122°26'1 1.3
2016-Jul-19 22:33N 37°49' W 122°25'0 0.0
2016-Jul-19 21:32N 37°49' W 122°25'0 0.0
2016-Jul-19 20:33N 37°49' W 122°25'2 2.1
2016-Jul-19 19:33N 37°49' W 122°27'2 2.2
2016-Jul-19 18:33N 37°49' W 122°24'0 0.5
2016-Jul-19 17:33N 37°49' W 122°25'2 0.1
2016-Jul-19 02:33N 37°50' W 122°27'2 1.8
2016-Jul-19 01:33N 37°49' W 122°24'0 0.4
2016-Jul-19 00:33N 37°49' W 122°25'1 1.4
2016-Jul-18 23:33N 37°50' W 122°25'1 1.4
2016-Jul-18 22:33N 37°49' W 122°25'0 0.0
2016-Jul-18 21:33N 37°49' W 122°25'0 0.0
2016-Jul-18 20:33N 37°49' W 122°25'3 2.6
2016-Jul-18 19:34N 37°49' W 122°28'  

Dump ship's entire track history